createdAt,value
2018-03-18T00:01:56.173Z,31.07
2018-03-18T00:04:23.659Z,30.73
2018-03-18T00:06:51.124Z,30.37
2018-03-18T00:09:18.613Z,30.83
2018-03-18T00:11:46.868Z,33.23
2018-03-18T00:14:14.374Z,31.47
2018-03-18T00:16:41.837Z,30.90
2018-03-18T00:19:09.306Z,37.97
2018-03-18T00:21:36.773Z,36.27
2018-03-18T00:24:04.254Z,35.43
2018-03-18T00:26:31.717Z,35.60
2018-03-18T00:28:59.200Z,33.10
2018-03-18T00:31:26.667Z,38.37
2018-03-18T00:33:54.140Z,37.17
2018-03-18T00:36:22.387Z,35.03
2018-03-18T00:38:49.860Z,36.20
2018-03-18T00:41:17.337Z,38.37
2018-03-18T00:43:44.813Z,38.40
2018-03-18T00:46:13.036Z,36.97
2018-03-18T00:48:40.535Z,36.37
2018-03-18T00:51:08.011Z,34.97
2018-03-18T00:53:35.494Z,33.73
2018-03-18T00:56:03.726Z,36.17
2018-03-18T00:58:31.192Z,33.50
2018-03-18T01:00:58.665Z,37.77
2018-03-18T01:03:26.141Z,35.77
2018-03-18T01:05:54.392Z,34.13
2018-03-18T01:08:21.858Z,32.73
2018-03-18T01:10:49.346Z,36.03
2018-03-18T01:13:16.834Z,33.17
2018-03-18T01:15:44.304Z,34.23
2018-03-18T01:18:11.779Z,30.27
2018-03-18T01:20:39.260Z,31.83
2018-03-18T01:23:06.753Z,34.80
2018-03-18T01:25:34.222Z,32.93
2018-03-18T01:28:01.697Z,34.10
2018-03-18T01:30:29.959Z,35.10
2018-03-18T01:32:57.407Z,32.53
2018-03-18T01:35:24.885Z,31.13
2018-03-18T01:37:52.356Z,32.90
2018-03-18T01:40:19.834Z,32.77
2018-03-18T01:42:48.065Z,33.63
2018-03-18T01:45:15.540Z,31.83
2018-03-18T01:47:43.021Z,32.87
2018-03-18T01:50:10.485Z,31.33
2018-03-18T01:52:37.947Z,32.70
2018-03-18T01:55:05.410Z,33.27
2018-03-18T01:57:32.890Z,32.50
2018-03-18T02:00:01.130Z,33.43
2018-03-18T02:02:28.605Z,32.90
2018-03-18T02:04:56.086Z,32.27
2018-03-18T02:07:23.555Z,32.57
2018-03-18T02:09:51.790Z,31.37
2018-03-18T02:12:20.012Z,32.77
2018-03-18T02:14:48.252Z,32.00
2018-03-18T02:17:15.971Z,31.47
2018-03-18T02:19:44.204Z,29.60
2018-03-18T02:22:11.680Z,31.07
2018-03-18T02:24:39.144Z,31.63
2018-03-18T02:27:06.655Z,32.10
2018-03-18T02:29:34.122Z,31.70
2018-03-18T02:32:01.603Z,32.00
2018-03-18T02:34:29.066Z,30.20
2018-03-18T02:36:56.535Z,30.73
2018-03-18T02:39:23.999Z,31.87
2018-03-18T02:41:51.463Z,30.40
2018-03-18T02:44:18.989Z,30.13
2018-03-18T02:46:48.424Z,29.37
2018-03-18T02:49:15.881Z,29.27
2018-03-18T02:51:43.349Z,30.40
2018-03-18T02:54:10.818Z,31.23
2018-03-18T02:56:38.291Z,30.70
2018-03-18T02:59:05.761Z,28.43
2018-03-18T03:01:34.009Z,28.93
2018-03-18T03:04:01.468Z,30.20
2018-03-18T03:06:28.940Z,29.90
2018-03-18T03:08:56.393Z,30.97
2018-03-18T03:11:23.873Z,29.30
2018-03-18T03:13:51.337Z,28.33
2018-03-18T03:16:18.800Z,29.80
2018-03-18T03:18:46.280Z,30.13
2018-03-18T03:21:14.518Z,29.50
2018-03-18T03:23:41.994Z,34.43
2018-03-18T03:26:09.470Z,28.50
2018-03-18T03:28:36.952Z,30.50
2018-03-18T03:31:05.182Z,28.90
2018-03-18T03:33:32.662Z,28.87
2018-03-18T03:36:00.135Z,31.10
2018-03-18T03:38:27.608Z,29.93
2018-03-18T03:40:55.053Z,28.43
2018-03-18T03:43:22.536Z,30.90
2018-03-18T03:45:50.763Z,31.63
2018-03-18T03:48:18.244Z,32.03
2018-03-18T03:50:45.705Z,31.20
2018-03-18T03:53:13.173Z,30.80
2018-03-18T03:55:40.629Z,30.03
2018-03-18T03:58:08.105Z,33.50
2018-03-18T04:00:35.552Z,29.70
2018-03-18T04:03:03.034Z,31.90
2018-03-18T04:05:30.484Z,32.60
2018-03-18T04:07:57.974Z,35.33
2018-03-18T04:10:25.441Z,31.67
2018-03-18T04:12:53.680Z,30.13
2018-03-18T04:15:21.160Z,29.87
2018-03-18T04:17:48.631Z,33.13
2018-03-18T04:20:16.088Z,29.83
2018-03-18T04:22:43.570Z,29.13
2018-03-18T04:25:11.046Z,31.53
2018-03-18T04:27:39.314Z,29.47
2018-03-18T04:30:06.777Z,31.93
2018-03-18T04:32:35.012Z,29.73
2018-03-18T04:35:02.502Z,30.53
2018-03-18T04:37:29.968Z,29.67
2018-03-18T04:39:57.431Z,28.43
2018-03-18T04:42:24.905Z,28.70
2018-03-18T04:44:52.391Z,27.23
2018-03-18T04:47:20.614Z,28.63
2018-03-18T04:49:48.091Z,26.57
2018-03-18T04:52:15.546Z,26.37
2018-03-18T04:54:43.063Z,29.23
2018-03-18T04:57:10.529Z,27.37
2018-03-18T04:59:37.999Z,27.33
2018-03-18T05:02:05.476Z,26.40
2018-03-18T05:04:32.951Z,26.67
2018-03-18T05:07:00.433Z,26.63
2018-03-18T05:09:27.897Z,26.30
2018-03-18T05:11:55.360Z,26.67
2018-03-18T05:14:22.822Z,26.67
2018-03-18T05:16:50.290Z,28.87
2018-03-18T05:19:18.529Z,30.03
2018-03-18T05:21:46.021Z,30.40
2018-03-18T05:24:13.495Z,27.47
2018-03-18T05:26:40.983Z,28.03
2018-03-18T05:29:09.214Z,31.27
2018-03-18T05:31:36.688Z,28.43
2018-03-18T05:34:04.426Z,28.23
2018-03-18T05:36:31.902Z,27.27
2018-03-18T05:38:59.376Z,27.77
2018-03-18T05:41:26.848Z,29.20
2018-03-18T05:43:54.309Z,27.97
2018-03-18T05:46:21.792Z,26.87
2018-03-18T05:48:50.017Z,29.20
2018-03-18T05:51:17.497Z,27.57
2018-03-18T05:53:44.961Z,28.73
2018-03-18T05:56:12.428Z,25.67
2018-03-18T05:58:39.905Z,29.70
2018-03-18T06:01:07.392Z,28.33
2018-03-18T06:03:35.622Z,26.93
2018-03-18T06:06:03.101Z,28.00
2018-03-18T06:08:30.576Z,28.07
2018-03-18T06:10:58.042Z,25.37
2018-03-18T06:13:25.500Z,27.60
2018-03-18T06:15:52.996Z,29.27
2018-03-18T06:18:21.221Z,28.30
2018-03-18T06:20:48.705Z,26.57
2018-03-18T06:23:16.170Z,25.60
2018-03-18T06:25:43.633Z,27.77
2018-03-18T06:28:11.118Z,26.87
2018-03-18T06:30:39.353Z,27.30
2018-03-18T06:33:06.819Z,26.47
2018-03-18T06:35:34.303Z,26.77
2018-03-18T06:38:01.787Z,27.63
2018-03-18T06:40:30.009Z,26.07
2018-03-18T06:42:57.487Z,26.20
2018-03-18T06:45:24.952Z,25.03
2018-03-18T06:47:52.430Z,25.73
2018-03-18T06:50:19.889Z,27.80
2018-03-18T06:52:47.357Z,26.67
2018-03-18T06:55:14.818Z,27.43
2018-03-18T06:57:42.276Z,26.80
2018-03-18T07:00:09.734Z,29.10
2018-03-18T07:02:37.217Z,27.20
2018-03-18T07:05:04.690Z,27.10
2018-03-18T07:07:32.933Z,27.10
2018-03-18T07:10:00.395Z,24.93
2018-03-18T07:12:27.865Z,27.53
2018-03-18T07:14:55.352Z,24.83
2018-03-18T07:17:23.623Z,26.03
2018-03-18T07:19:51.093Z,26.10
2018-03-18T07:22:19.386Z,26.03
2018-03-18T07:24:46.829Z,26.27
2018-03-18T07:27:14.284Z,25.67
2018-03-18T07:29:42.568Z,23.90
2018-03-18T07:32:10.817Z,26.50
2018-03-18T07:34:38.300Z,26.27
2018-03-18T07:37:05.763Z,24.57
2018-03-18T07:39:33.234Z,25.90
2018-03-18T07:42:00.702Z,25.37
2018-03-18T07:44:28.194Z,25.77
2018-03-18T07:46:55.654Z,26.00
2018-03-18T07:49:23.892Z,25.43
2018-03-18T07:51:51.353Z,24.20
2018-03-18T07:54:18.830Z,27.33
2018-03-18T07:56:46.285Z,28.43
2018-03-18T07:59:13.781Z,26.03
2018-03-18T08:01:41.245Z,25.17
2018-03-18T08:04:08.745Z,27.40
2018-03-18T08:06:36.198Z,25.63
2018-03-18T08:09:03.665Z,26.27
2018-03-18T08:11:31.133Z,25.90
2018-03-18T08:13:58.623Z,26.40
2018-03-18T08:16:26.088Z,28.07
2018-03-18T08:18:53.565Z,27.07
2018-03-18T08:21:21.800Z,27.40
2018-03-18T08:23:49.289Z,47.13
2018-03-18T08:26:16.810Z,29.97
2018-03-18T08:28:44.208Z,25.37
2018-03-18T08:31:11.681Z,29.33
2018-03-18T08:33:39.145Z,23.90
2018-03-18T08:36:06.635Z,25.67
2018-03-18T08:38:34.862Z,24.70
2018-03-18T08:41:03.104Z,26.10
2018-03-18T08:43:31.332Z,24.93
2018-03-18T08:45:58.801Z,26.23
2018-03-18T08:48:26.266Z,28.17
2018-03-18T08:50:53.748Z,27.90
2018-03-18T08:53:21.218Z,25.93
2018-03-18T08:55:49.445Z,27.37
2018-03-18T08:58:16.924Z,27.47
2018-03-18T09:00:44.393Z,26.47
2018-03-18T09:03:11.857Z,29.03
2018-03-18T09:05:39.340Z,26.23
2018-03-18T09:08:06.799Z,27.47
2018-03-18T09:10:34.265Z,26.53
2018-03-18T09:13:01.730Z,26.83
2018-03-18T09:15:29.197Z,26.90
2018-03-18T09:17:56.657Z,25.43
2018-03-18T09:20:24.127Z,26.57
2018-03-18T09:22:51.582Z,27.13
2018-03-18T09:25:19.046Z,26.77
2018-03-18T09:27:47.287Z,26.70
2018-03-18T09:30:14.810Z,26.17
2018-03-18T09:32:42.258Z,31.10
2018-03-18T09:35:10.476Z,27.23
2018-03-18T09:37:37.928Z,27.47
2018-03-18T09:40:05.395Z,27.53
2018-03-18T09:42:32.881Z,27.07
2018-03-18T09:45:00.353Z,26.13
2018-03-18T09:47:27.817Z,26.57
2018-03-18T09:49:55.273Z,26.23
2018-03-18T09:52:22.741Z,27.63
2018-03-18T09:55:03.520Z,27.90
2018-03-18T09:57:30.980Z,24.37
2018-03-18T09:59:58.437Z,26.63
2018-03-18T10:02:25.901Z,26.83
2018-03-18T10:04:53.370Z,25.90
2018-03-18T10:07:20.852Z,27.80
2018-03-18T10:09:48.303Z,27.50
2018-03-18T10:12:15.766Z,24.53
2018-03-18T10:14:43.221Z,24.97
2018-03-18T10:17:10.690Z,24.47
2018-03-18T10:19:38.171Z,23.20
2018-03-18T10:22:06.426Z,27.03
2018-03-18T10:24:33.939Z,24.63
2018-03-18T10:27:01.402Z,24.33
2018-03-18T10:29:28.920Z,26.70
2018-03-18T10:31:56.325Z,25.10
2018-03-18T10:34:23.822Z,24.53
2018-03-18T10:36:51.289Z,23.20
2018-03-18T10:39:18.761Z,26.93
2018-03-18T10:41:46.225Z,24.60
2018-03-18T10:44:13.688Z,24.33
2018-03-18T10:46:41.185Z,24.20
2018-03-18T10:49:09.421Z,22.47
2018-03-18T10:51:36.873Z,22.67
2018-03-18T10:54:04.355Z,22.27
2018-03-18T10:56:31.812Z,23.47
2018-03-18T10:58:59.293Z,25.90
2018-03-18T11:01:32.536Z,24.33
2018-03-18T11:04:05.758Z,23.30
2018-03-18T11:06:33.235Z,24.17
2018-03-18T11:09:00.717Z,24.10
2018-03-18T11:11:28.160Z,24.17
2018-03-18T11:13:55.617Z,23.00
2018-03-18T11:16:23.076Z,24.20
2018-03-18T11:18:50.555Z,27.03
2018-03-18T11:21:18.031Z,23.20
2018-03-18T11:23:46.300Z,23.87
2018-03-18T11:26:13.725Z,21.00
2018-03-18T11:28:41.208Z,24.20
2018-03-18T11:31:08.690Z,27.47
2018-03-18T11:33:36.155Z,22.83
2018-03-18T11:36:03.611Z,22.17
2018-03-18T11:38:31.829Z,22.17
2018-03-18T11:41:00.069Z,21.63
2018-03-18T11:43:27.513Z,24.57
2018-03-18T11:45:54.978Z,26.73
2018-03-18T11:48:22.428Z,24.97
2018-03-18T11:50:49.898Z,24.97
2018-03-18T11:53:17.349Z,22.63
2018-03-18T11:55:44.810Z,22.30
2018-03-18T11:58:12.275Z,24.57
2018-03-18T12:00:39.745Z,22.37
2018-03-18T12:03:07.205Z,22.60
2018-03-18T12:05:34.668Z,22.50
2018-03-18T12:08:02.162Z,23.07
2018-03-18T12:10:30.396Z,22.90
2018-03-18T12:12:57.871Z,23.33
2018-03-18T12:15:25.378Z,22.33
2018-03-18T12:17:53.597Z,23.47
2018-03-18T12:20:21.077Z,24.53
2018-03-18T12:22:48.533Z,23.40
2018-03-18T12:25:16.006Z,24.80
2018-03-18T12:27:43.457Z,23.97
2018-03-18T12:30:10.946Z,24.20
2018-03-18T12:32:38.390Z,21.17
2018-03-18T12:35:05.853Z,22.33
2018-03-18T12:37:33.316Z,23.07
2018-03-18T12:40:12.590Z,22.77
2018-03-18T12:42:52.803Z,23.20
2018-03-18T12:45:20.271Z,21.80
2018-03-18T12:47:47.743Z,24.07
2018-03-18T12:50:15.192Z,24.00
2018-03-18T12:52:42.661Z,22.53
2018-03-18T12:55:10.108Z,23.30
2018-03-18T12:57:37.606Z,22.60
2018-03-18T13:00:05.841Z,22.77
2018-03-18T13:02:33.327Z,23.57
2018-03-18T13:05:00.779Z,23.40
2018-03-18T13:07:28.244Z,23.53
2018-03-18T13:09:55.712Z,22.57
2018-03-18T13:12:23.175Z,23.60
2018-03-18T13:14:50.629Z,21.83
2018-03-18T13:17:18.110Z,21.90
2018-03-18T13:19:45.558Z,23.93
2018-03-18T13:22:13.041Z,22.17
2018-03-18T13:24:40.518Z,21.63
2018-03-18T13:27:07.953Z,23.83
2018-03-18T13:29:35.406Z,23.07
2018-03-18T13:32:02.877Z,21.30
2018-03-18T13:34:30.339Z,21.60
2018-03-18T13:36:57.826Z,24.23
2018-03-18T13:39:25.280Z,22.10
2018-03-18T13:41:54.343Z,21.23
2018-03-18T13:44:21.814Z,26.97
2018-03-18T13:46:49.297Z,21.10
2018-03-18T13:49:16.758Z,22.53
2018-03-18T13:51:44.209Z,23.00
2018-03-18T13:54:11.668Z,20.30
2018-03-18T13:56:39.131Z,22.40
2018-03-18T13:59:06.610Z,23.97
2018-03-18T14:01:34.061Z,21.53
2018-03-18T14:04:01.522Z,21.77
2018-03-18T14:06:28.972Z,22.90
2018-03-18T14:08:56.448Z,22.17
2018-03-18T14:11:23.914Z,21.27
2018-03-18T14:13:51.373Z,22.40
2018-03-18T14:16:18.835Z,20.90
2018-03-18T14:18:46.293Z,21.20
2018-03-18T14:21:13.747Z,21.40
2018-03-18T14:23:41.216Z,21.70
2018-03-18T14:26:08.668Z,23.03
2018-03-18T14:28:36.124Z,22.57
2018-03-18T14:31:03.598Z,20.77
2018-03-18T14:33:31.065Z,22.60
2018-03-18T14:35:58.534Z,24.80
2018-03-18T14:38:25.989Z,22.43
2018-03-18T14:40:53.441Z,21.13
2018-03-18T14:43:20.913Z,21.33
2018-03-18T14:45:48.380Z,20.17
2018-03-18T14:48:15.841Z,21.13
2018-03-18T14:50:43.284Z,22.13
2018-03-18T14:53:10.773Z,20.70
2018-03-18T14:55:38.224Z,21.07
2018-03-18T14:58:05.683Z,21.27
2018-03-18T15:00:33.165Z,22.03
2018-03-18T15:03:00.619Z,21.60
2018-03-18T15:05:28.090Z,21.20
2018-03-18T15:07:55.540Z,21.33
2018-03-18T15:10:23.020Z,20.40
2018-03-18T15:12:50.485Z,23.57
2018-03-18T15:15:17.963Z,22.77
2018-03-18T15:17:46.185Z,22.07
2018-03-18T15:20:13.656Z,21.60
2018-03-18T15:22:41.099Z,21.03
2018-03-18T15:25:08.567Z,20.73
2018-03-18T15:27:36.035Z,21.30
2018-03-18T15:30:03.496Z,21.73
2018-03-18T15:32:30.952Z,23.50
2018-03-18T15:34:58.422Z,22.93
2018-03-18T15:37:25.898Z,23.93
2018-03-18T15:39:53.362Z,23.17
2018-03-18T15:42:20.817Z,22.83
2018-03-18T15:44:48.278Z,23.70
2018-03-18T15:47:15.761Z,24.30
2018-03-18T15:49:43.241Z,22.80
2018-03-18T15:52:10.699Z,20.90
2018-03-18T15:54:38.169Z,21.80
2018-03-18T15:57:06.408Z,20.93
2018-03-18T15:59:33.844Z,20.60
2018-03-18T16:02:01.313Z,23.33
2018-03-18T16:04:28.772Z,22.37
2018-03-18T16:07:08.237Z,22.13
2018-03-18T16:09:35.693Z,22.33
2018-03-18T16:12:03.163Z,21.70
2018-03-18T16:14:30.617Z,21.97
2018-03-18T16:16:58.082Z,22.90
2018-03-18T16:19:25.561Z,24.80
2018-03-18T16:21:53.012Z,22.00
2018-03-18T16:24:20.479Z,22.47
2018-03-18T16:26:47.957Z,23.27
2018-03-18T16:29:27.041Z,23.47
2018-03-18T16:31:54.514Z,24.27
2018-03-18T16:34:21.966Z,26.10
2018-03-18T16:36:49.420Z,26.43
2018-03-18T16:39:16.881Z,25.13
2018-03-18T16:41:44.361Z,21.00
2018-03-18T16:44:11.844Z,21.77
2018-03-18T16:46:39.327Z,22.47
2018-03-18T16:49:06.798Z,22.70
2018-03-18T16:51:34.271Z,21.33
2018-03-18T16:54:02.510Z,22.07
2018-03-18T16:56:29.978Z,24.57
2018-03-18T16:58:57.449Z,24.43
2018-03-18T17:01:24.957Z,22.60
2018-03-18T17:03:53.148Z,21.20
2018-03-18T17:06:20.623Z,21.70
2018-03-18T17:08:48.097Z,21.67
2018-03-18T17:11:15.565Z,23.50
2018-03-18T17:13:43.037Z,21.80
2018-03-18T17:16:10.493Z,21.67
2018-03-18T17:18:37.964Z,22.07
2018-03-18T17:21:05.484Z,20.97
2018-03-18T17:23:32.958Z,21.80
2018-03-18T17:26:00.425Z,21.17
2018-03-18T17:28:27.906Z,23.57
2018-03-18T17:30:55.364Z,25.13
2018-03-18T17:33:22.824Z,22.33
2018-03-18T17:35:50.292Z,23.17
2018-03-18T17:38:17.760Z,23.50
2018-03-18T17:40:45.213Z,23.07
2018-03-18T17:43:12.689Z,23.53
2018-03-18T17:45:52.013Z,22.93
2018-03-18T17:48:31.430Z,23.37
2018-03-18T17:54:30.176Z,23.60
2018-03-18T17:56:57.635Z,23.40
2018-03-18T17:59:25.862Z,23.90
2018-03-18T18:01:53.325Z,23.83
2018-03-18T18:04:20.792Z,23.23
2018-03-18T18:06:48.258Z,22.43
2018-03-18T18:09:15.716Z,22.50
2018-03-18T18:11:43.187Z,23.07
2018-03-18T18:14:10.678Z,23.53
2018-03-18T18:16:38.913Z,22.67
2018-03-18T18:19:06.398Z,29.30
2018-03-18T18:21:33.885Z,25.53
2018-03-18T18:24:02.139Z,23.47
2018-03-18T18:26:29.604Z,23.10
2018-03-18T18:28:57.068Z,24.27
2018-03-18T18:31:24.529Z,23.70
2018-03-18T18:33:51.992Z,23.33
2018-03-18T18:36:19.452Z,21.50
2018-03-18T18:38:48.924Z,21.23
2018-03-18T18:41:16.381Z,22.40
2018-03-18T18:43:43.860Z,21.00
2018-03-18T18:46:12.077Z,24.60
2018-03-18T18:48:39.562Z,24.73
2018-03-18T18:51:07.799Z,23.33
2018-03-18T18:53:37.279Z,23.20
2018-03-18T18:56:04.777Z,22.90
2018-03-18T18:58:32.985Z,23.37
2018-03-18T19:01:01.233Z,23.03
2018-03-18T19:03:28.693Z,22.97
2018-03-18T19:05:56.157Z,23.07
2018-03-18T19:08:23.614Z,22.97
2018-03-18T19:10:51.120Z,22.73
2018-03-18T19:13:19.333Z,23.57
2018-03-18T19:15:46.804Z,22.53
2018-03-18T19:18:14.273Z,23.43
2018-03-18T19:20:41.744Z,22.37
2018-03-18T19:23:09.208Z,25.23
2018-03-18T19:25:36.680Z,24.13
2018-03-18T19:28:04.152Z,22.23
2018-03-18T19:30:31.611Z,23.47
2018-03-18T19:32:59.077Z,23.90
2018-03-18T19:35:26.555Z,25.30
2018-03-18T19:37:54.011Z,22.87
2018-03-18T19:40:21.489Z,22.13
2018-03-18T19:42:49.736Z,23.10
2018-03-18T19:45:17.204Z,24.20
2018-03-18T19:47:44.672Z,25.00
2018-03-18T19:50:12.144Z,26.27
2018-03-18T19:52:40.372Z,25.23
2018-03-18T19:55:07.842Z,22.93
2018-03-18T19:57:35.306Z,22.67
2018-03-18T20:00:02.762Z,22.20
2018-03-18T20:02:30.263Z,22.13
2018-03-18T20:04:57.724Z,21.43
2018-03-18T20:07:25.200Z,20.83
2018-03-18T20:09:52.653Z,23.27
2018-03-18T20:12:20.134Z,21.50
2018-03-18T20:14:48.387Z,22.97
2018-03-18T20:17:15.853Z,22.00
2018-03-18T20:19:43.318Z,23.43
2018-03-18T20:22:10.811Z,21.97
2018-03-18T20:24:39.042Z,22.33
2018-03-18T20:27:06.513Z,23.07
2018-03-18T20:29:33.971Z,21.87
2018-03-18T20:32:01.432Z,23.07
2018-03-18T20:34:28.884Z,21.03
2018-03-18T20:36:56.373Z,23.83
2018-03-18T20:39:23.854Z,23.50
2018-03-18T20:41:51.322Z,22.50
2018-03-18T20:44:19.549Z,22.07
2018-03-18T20:46:47.013Z,21.70
2018-03-18T20:49:14.476Z,20.30
2018-03-18T20:51:41.945Z,21.83
2018-03-18T20:54:09.435Z,21.37
2018-03-18T20:56:36.908Z,22.83
2018-03-18T20:59:04.352Z,21.47
2018-03-18T21:01:31.819Z,21.80
2018-03-18T21:03:59.274Z,21.33
2018-03-18T21:06:26.739Z,22.10
2018-03-18T21:08:54.209Z,21.33
2018-03-18T21:11:21.668Z,23.33
2018-03-18T21:13:49.137Z,22.63
2018-03-18T21:16:16.601Z,29.87
2018-03-18T21:18:44.062Z,26.63
2018-03-18T21:21:11.518Z,26.73
2018-03-18T21:23:39.001Z,24.23
2018-03-18T21:26:07.233Z,23.70
2018-03-18T21:28:34.696Z,22.17
2018-03-18T21:31:02.161Z,21.80
2018-03-18T21:33:29.649Z,22.20
2018-03-18T21:35:57.114Z,21.87
2018-03-18T21:38:24.587Z,24.50
2018-03-18T21:40:52.803Z,25.60
2018-03-18T21:43:20.279Z,23.73
2018-03-18T21:45:47.746Z,24.63
2018-03-18T21:48:15.213Z,23.90
2018-03-18T21:50:42.675Z,22.23
2018-03-18T21:53:10.145Z,22.03
2018-03-18T21:55:37.604Z,23.30
2018-03-18T21:58:05.068Z,23.37
2018-03-18T22:00:32.532Z,23.30
2018-03-18T22:02:59.985Z,24.07
2018-03-18T22:05:27.444Z,24.23
2018-03-18T22:07:54.921Z,25.57
2018-03-18T22:10:22.381Z,25.70
2018-03-18T22:12:49.839Z,25.20
2018-03-18T22:15:17.301Z,25.97
2018-03-18T22:17:44.776Z,26.33
2018-03-18T22:20:12.235Z,25.23
2018-03-18T22:22:39.692Z,24.20
2018-03-18T22:25:07.163Z,26.60
2018-03-18T22:27:34.627Z,23.80
2018-03-18T22:30:02.099Z,21.73
2018-03-18T22:32:29.577Z,21.83
2018-03-18T22:34:57.817Z,23.63
2018-03-18T22:37:25.278Z,23.47
2018-03-18T22:39:52.746Z,25.60
2018-03-18T22:42:20.210Z,26.23
2018-03-18T22:44:47.669Z,22.83
2018-03-18T22:47:15.130Z,25.40
2018-03-18T22:49:42.595Z,24.30
2018-03-18T22:52:10.061Z,23.37
2018-03-18T22:54:37.528Z,26.73
2018-03-18T22:57:04.999Z,22.50
2018-03-18T22:59:32.460Z,23.23
2018-03-18T23:01:59.921Z,24.53
2018-03-18T23:04:27.381Z,22.30
2018-03-18T23:06:54.858Z,20.43
2018-03-18T23:09:22.329Z,24.97
2018-03-18T23:11:49.796Z,24.33
2018-03-18T23:14:17.264Z,24.60
2018-03-18T23:16:44.730Z,25.87
2018-03-18T23:19:12.188Z,25.23
2018-03-18T23:21:39.663Z,25.33
2018-03-18T23:24:08.072Z,21.77
2018-03-18T23:26:35.534Z,22.87
2018-03-18T23:29:02.993Z,24.47
2018-03-18T23:31:31.226Z,27.37
2018-03-18T23:33:58.718Z,24.30
2018-03-18T23:36:26.950Z,24.23
2018-03-18T23:38:54.405Z,26.17
2018-03-18T23:41:21.868Z,24.03
2018-03-18T23:43:49.341Z,25.87
2018-03-18T23:46:16.792Z,24.60
2018-03-18T23:48:44.261Z,25.43
2018-03-18T23:51:11.729Z,24.33
2018-03-18T23:53:39.180Z,24.23
2018-03-18T23:56:06.637Z,21.87
2018-03-18T23:58:34.125Z,25.53
